Time;durP1;ratioP1;P1;durP2;ratioP2;P2;SDS_P1;SDS_P2;PMS_P1;PMS_P2;Temp;Humidity;BMP_temperature;BMP_pressure;BME280_temperature;BME280_humidity;BME280_pressure;Samples;Min_cycle;Max_cycle;Signal;HPM_P1;HPM_P2
2022/05/06 00:02:03;;;;;;;5.13;2.70;;;;;;;13.37;54.87;99598.72;5011746;28;20037;-83
2022/05/06 00:04:28;;;;;;;3.15;2.65;;;;;;;13.36;54.34;99610.53;5006700;28;20079;-83
2022/05/06 00:06:54;;;;;;;4.13;3.05;;;;;;;13.36;54.85;99594.44;4989623;28;20025;-83
2022/05/06 00:09:19;;;;;;;4.50;2.72;;;;;;;13.28;55.15;99602.09;5005559;28;20036;-82
2022/05/06 00:11:45;;;;;;;4.07;2.35;;;;;;;13.25;54.95;99597.22;5005590;28;20037;-83
2022/05/06 00:14:10;;;;;;;4.15;2.83;;;;;;;13.31;55.17;99594.34;4989885;28;20486;-82
2022/05/06 00:16:35;;;;;;;3.13;2.45;;;;;;;13.33;55.06;99594.91;5007251;28;20041;-82
2022/05/06 00:19:01;;;;;;;5.15;2.47;;;;;;;13.30;54.64;99597.28;5024687;28;20049;-82
2022/05/06 00:21:26;;;;;;;3.42;2.70;;;;;;;13.32;55.34;99601.31;5006625;28;20462;-83
2022/05/06 00:23:52;;;;;;;2.50;2.30;;;;;;;13.27;55.01;99595.09;4973004;28;20032;-83
2022/05/06 00:26:18;;;;;;;2.92;2.63;;;;;;;13.35;55.03;99606.19;5005535;28;20029;-83
2022/05/06 00:28:43;;;;;;;3.20;2.90;;;;;;;13.31;55.00;99602.41;4984746;28;20033;-83
2022/05/06 00:31:08;;;;;;;3.95;2.53;;;;;;;13.26;55.12;99605.00;4992950;28;20057;-83
2022/05/06 00:33:34;;;;;;;4.00;2.67;;;;;;;13.19;54.90;99599.00;5006840;28;20078;-83
2022/05/06 00:36:01;;;;;;;3.83;2.90;;;;;;;13.09;54.74;99606.91;4995600;28;20036;-83
2022/05/06 00:38:27;;;;;;;4.38;2.80;;;;;;;13.07;55.25;99608.19;5008838;28;20044;-83
2022/05/06 00:40:53;;;;;;;5.93;3.50;;;;;;;13.00;55.63;99607.53;4990284;28;20478;-83
2022/05/06 00:43:20;;;;;;;5.35;3.28;;;;;;;13.00;55.79;99607.53;4991212;28;20390;-82
2022/05/06 00:45:52;;;;;;;5.15;2.50;;;;;;;13.00;55.53;99607.53;4999830;28;20396;-83
2022/05/06 00:48:19;;;;;;;3.88;2.85;;;;;;;12.99;55.59;99611.28;5018524;28;20029;-82
2022/05/06 00:50:45;;;;;;;5.22;3.28;;;;;;;13.00;55.66;99602.97;5001294;28;20075;-83
2022/05/06 00:53:11;;;;;;;4.32;2.92;;;;;;;12.86;55.35;99593.69;4989122;28;20516;-83
2022/05/06 00:55:37;;;;;;;3.28;2.72;;;;;;;12.93;55.30;99607.69;5007200;28;20431;-83
2022/05/06 00:58:06;;;;;;;5.30;3.17;;;;;;;12.86;55.93;99609.75;5009497;28;20104;-82
2022/05/06 01:00:32;;;;;;;3.83;2.58;;;;;;;12.98;55.22;99604.28;5027296;28;20041;-82
2022/05/06 01:02:57;;;;;;;4.38;3.03;;;;;;;12.90;55.37;99604.69;5000047;28;20025;-82
2022/05/06 01:05:23;;;;;;;7.90;3.10;;;;;;;12.82;55.85;99605.13;4989395;28;20072;-83
2022/05/06 01:07:50;;;;;;;6.50;3.40;;;;;;;12.88;55.44;99606.81;5004061;28;20033;-83
2022/05/06 01:10:17;;;;;;;3.15;2.72;;;;;;;12.88;55.59;99602.28;5006600;28;20025;-83
2022/05/06 01:12:42;;;;;;;5.43;3.08;;;;;;;12.89;55.07;99606.56;4996970;28;20043;-83
2022/05/06 01:15:22;;;;;;;5.15;2.90;;;;;;;12.86;55.71;99612.44;4979537;28;20552;-82
2022/05/06 01:17:49;;;;;;;3.65;2.70;;;;;;;12.76;55.80;99610.38;5001021;28;20100;-82
2022/05/06 01:20:16;;;;;;;2.70;2.50;;;;;;;12.75;55.73;99607.97;4994974;28;20056;-82
2022/05/06 01:22:46;;;;;;;4.03;2.80;;;;;;;12.60;56.05;99610.41;5011220;28;20121;-82
2022/05/06 01:25:12;;;;;;;2.95;2.75;;;;;;;12.71;55.77;99609.50;4995715;28;20060;-84
2022/05/06 01:27:45;;;;;;;5.50;2.67;;;;;;;12.71;55.99;99609.50;5009360;28;20033;-85
2022/05/06 01:30:19;;;;;;;5.13;3.22;;;;;;;12.59;55.63;99606.91;4994457;28;20481;-85
2022/05/06 01:32:45;;;;;;;4.68;3.00;;;;;;;12.60;55.74;99615.75;4993678;28;20060;-85
2022/05/06 01:35:12;;;;;;;4.50;2.78;;;;;;;12.51;56.35;99611.84;4974250;28;20072;-85
2022/05/06 01:37:40;;;;;;;3.67;3.38;;;;;;;12.49;56.39;99616.63;5010022;28;20033;-85
2022/05/06 01:40:07;;;;;;;3.72;2.97;;;;;;;12.49;56.16;99614.75;5009502;28;20030;-85
2022/05/06 01:42:36;;;;;;;4.47;3.10;;;;;;;12.41;56.35;99617.00;4981083;28;20051;-85
2022/05/06 01:45:03;;;;;;;4.03;3.17;;;;;;;12.45;56.41;99612.81;5005826;28;20036;-85
2022/05/06 01:47:30;;;;;;;3.95;3.33;;;;;;;12.48;55.76;99598.94;5005402;28;20043;-85
2022/05/06 01:49:58;;;;;;;3.13;2.60;;;;;;;12.47;55.56;99605.34;5008343;28;20056;-85
2022/05/06 01:52:24;;;;;;;2.80;2.55;;;;;;;12.49;56.14;99613.97;5028293;28;20104;-85
2022/05/06 01:54:50;;;;;;;3.08;2.78;;;;;;;12.47;55.74;99616.84;5007040;28;20029;-85
2022/05/06 01:57:15;;;;;;;4.07;2.80;;;;;;;12.50;55.40;99619.06;4977206;28;20026;-85
2022/05/06 01:59:40;;;;;;;3.03;2.72;;;;;;;12.29;56.24;99609.06;4983485;28;20111;-85
2022/05/06 02:02:06;;;;;;;4.50;2.97;;;;;;;12.49;56.08;99622.00;4977731;28;20160;-85
2022/05/06 02:07:15;;;;;;;3.45;3.15;;;;;;;12.40;56.25;99620.75;5012772;28;20560;-85
2022/05/06 02:09:40;;;;;;;3.58;3.22;;;;;;;12.39;56.33;99617.25;5009019;28;20033;-85
2022/05/06 02:12:07;;;;;;;2.88;2.47;;;;;;;12.27;56.44;99613.03;4986644;28;20624;-85
2022/05/06 02:14:33;;;;;;;4.65;2.80;;;;;;;12.31;56.42;99600.78;4990750;28;20037;-85
2022/05/06 02:16:59;;;;;;;2.97;2.78;;;;;;;12.31;56.28;99606.94;5007202;28;20532;-85
2022/05/06 02:19:26;;;;;;;6.53;2.40;;;;;;;12.32;55.77;99619.25;4989339;28;20155;-85
2022/05/06 02:21:51;;;;;;;4.85;2.70;;;;;;;12.27;55.98;99615.69;5008485;28;20049;-85
2022/05/06 02:24:17;;;;;;;4.72;2.75;;;;;;;12.12;56.34;99597.50;4990941;28;20464;-85
2022/05/06 02:26:42;;;;;;;2.90;2.70;;;;;;;12.17;55.89;99628.88;4998146;28;20061;-85
2022/05/06 02:29:07;;;;;;;4.43;3.35;;;;;;;12.16;56.01;99627.28;4993038;28;20029;-85
2022/05/06 02:34:18;;;;;;;5.28;3.60;;;;;;;12.04;56.66;99616.59;5013049;28;20041;-83
2022/05/06 02:36:44;;;;;;;3.70;3.35;;;;;;;11.98;56.70;99612.22;4994063;28;20500;-83
2022/05/06 02:39:10;;;;;;;6.00;3.83;;;;;;;12.07;56.87;99616.13;5005437;28;20470;-82
2022/05/06 02:41:35;;;;;;;5.00;3.33;;;;;;;11.98;56.25;99618.38;4993697;28;20041;-82
2022/05/06 02:44:04;;;;;;;6.00;3.72;;;;;;;11.88;56.47;99604.00;5008097;28;20111;-82
2022/05/06 02:46:30;;;;;;;5.40;3.80;;;;;;;12.00;56.76;99618.97;5001344;28;20403;-82
2022/05/06 02:48:55;;;;;;;5.28;3.05;;;;;;;11.87;56.23;99605.88;5009303;28;20636;-82
2022/05/06 02:51:20;;;;;;;3.88;3.08;;;;;;;11.89;56.61;99609.09;4972599;28;20096;-82
2022/05/06 02:53:46;;;;;;;4.32;3.50;;;;;;;11.91;56.74;99616.88;4975217;28;20068;-82
2022/05/06 02:56:11;;;;;;;4.88;3.28;;;;;;;11.87;56.79;99613.88;4990398;28;20044;-82
2022/05/06 02:58:36;;;;;;;5.30;3.70;;;;;;;11.86;56.48;99614.94;4991449;28;20042;-82
2022/05/06 03:01:02;;;;;;;4.35;3.65;;;;;;;11.92;56.16;99619.34;5003686;28;20040;-82
2022/05/06 03:03:27;;;;;;;3.33;3.03;;;;;;;11.79;56.97;99624.16;5009589;28;20033;-82
2022/05/06 03:05:52;;;;;;;4.30;3.92;;;;;;;11.74;56.73;99600.78;4990708;28;20057;-82
2022/05/06 03:08:18;;;;;;;3.42;3.00;;;;;;;11.69;57.10;99597.19;4992686;28;20030;-82
2022/05/06 03:10:43;;;;;;;4.18;3.67;;;;;;;11.81;57.06;99616.69;4993292;28;20397;-82
2022/05/06 03:13:08;;;;;;;4.35;3.40;;;;;;;11.71;56.89;99617.28;4990427;28;20108;-82
2022/05/06 03:15:35;;;;;;;4.38;3.53;;;;;;;11.72;57.19;99610.09;4976573;28;20040;-82
2022/05/06 03:18:00;;;;;;;8.52;3.47;;;;;;;11.67;57.01;99613.47;4991621;28;20485;-82
2022/05/06 03:20:26;;;;;;;5.70;3.75;;;;;;;11.79;56.48;99621.47;4989527;28;20127;-82
2022/05/06 03:22:52;;;;;;;4.25;3.80;;;;;;;11.69;56.57;99619.41;5007675;28;20048;-82
2022/05/06 03:25:19;;;;;;;4.60;3.60;;;;;;;11.66;56.68;99625.22;4989008;28;20503;-82
2022/05/06 03:28:00;;;;;;;9.45;3.17;;;;;;;11.70;56.93;99631.72;5015594;28;20035;-82
2022/05/06 03:30:27;;;;;;;5.57;3.60;;;;;;;11.58;56.86;99625.56;4991387;28;20844;-82
2022/05/06 03:32:55;;;;;;;4.68;3.70;;;;;;;11.56;56.65;99614.28;4992858;28;20040;-82
2022/05/06 03:35:20;;;;;;;6.07;3.20;;;;;;;11.47;57.10;99614.88;5002184;28;20477;-82
2022/05/06 03:37:46;;;;;;;4.05;3.60;;;;;;;11.51;57.18;99622.19;5009154;28;20104;-82
2022/05/06 03:40:11;;;;;;;4.18;3.50;;;;;;;11.58;57.00;99628.22;5010732;28;20037;-82
2022/05/06 03:42:37;;;;;;;3.53;3.17;;;;;;;11.54;57.09;99626.25;5028349;28;20033;-82
2022/05/06 03:45:03;;;;;;;3.88;3.47;;;;;;;11.56;56.55;99626.84;5010293;28;20049;-82
2022/05/06 03:47:28;;;;;;;4.30;3.22;;;;;;;11.51;56.99;99632.88;5001821;28;20034;-82
2022/05/06 03:52:38;;;;;;;6.47;3.42;;;;;;;11.47;56.84;99626.38;4996320;28;20083;-82
2022/05/06 03:55:03;;;;;;;3.92;3.13;;;;;;;11.50;56.65;99633.13;4990272;28;20416;-82
2022/05/06 03:57:29;;;;;;;4.00;3.60;;;;;;;11.43;56.61;99625.22;5006899;28;20026;-82
2022/05/06 03:59:54;;;;;;;6.93;3.30;;;;;;;11.43;56.87;99635.09;4975891;28;20033;-82
2022/05/06 04:02:20;;;;;;;3.42;3.03;;;;;;;11.41;56.98;99631.84;4988428;28;20033;-82
2022/05/06 04:04:45;;;;;;;6.18;4.00;;;;;;;11.46;57.00;99638.13;5007084;28;20116;-82
2022/05/06 04:07:11;;;;;;;3.72;3.35;;;;;;;11.43;57.55;99641.28;4976470;28;20049;-82
2022/05/06 04:09:36;;;;;;;3.55;3.22;;;;;;;11.37;56.88;99639.53;4993611;28;20037;-82
2022/05/06 04:12:02;;;;;;;4.93;3.60;;;;;;;11.47;57.23;99641.59;4991583;28;20490;-82
2022/05/06 04:14:27;;;;;;;6.40;3.60;;;;;;;11.27;57.43;99637.44;5002781;28;20026;-82
2022/05/06 04:16:52;;;;;;;3.70;3.38;;;;;;;11.15;57.36;99642.00;5012571;28;20075;-82
2022/05/06 04:19:18;;;;;;;4.65;3.28;;;;;;;11.08;58.84;99632.44;4986722;28;20482;-82
2022/05/06 04:24:27;;;;;;;3.85;3.30;;;;;;;10.68;59.48;99639.50;5001945;28;20440;-82
2022/05/06 04:26:52;;;;;;;7.63;4.10;;;;;;;10.61;60.07;99641.47;5010635;28;20037;-81
2022/05/06 04:29:18;;;;;;;4.35;2.75;;;;;;;10.64;60.50;99641.81;5027282;28;20473;-81
2022/05/06 04:31:43;;;;;;;7.22;3.85;;;;;;;10.71;60.01;99641.72;4991824;28;20045;-82
2022/05/06 04:34:08;;;;;;;7.15;2.83;;;;;;;10.58;60.35;99648.06;4975410;28;20041;-83
2022/05/06 04:36:34;;;;;;;3.88;3.47;;;;;;;10.77;60.00;99659.50;4978865;28;20561;-85
2022/05/06 04:38:59;;;;;;;13.95;4.15;;;;;;;10.62;61.25;99657.25;4990648;28;20025;-86
2022/05/06 04:41:24;;;;;;;5.53;4.85;;;;;;;10.69;61.21;99647.28;5016171;28;20021;-87
2022/05/06 04:43:50;;;;;;;6.35;3.60;;;;;;;10.88;60.55;99669.34;4990517;28;20124;-87
2022/05/06 04:46:15;;;;;;;4.60;3.78;;;;;;;10.92;60.87;99665.22;5007077;28;20032;-86
2022/05/06 04:48:41;;;;;;;5.47;4.10;;;;;;;11.16;60.14;99664.19;4994169;28;20044;-86
2022/05/06 04:51:06;;;;;;;4.35;3.60;;;;;;;11.33;59.87;99673.91;5009050;28;20022;-86
2022/05/06 04:53:32;;;;;;;4.88;3.90;;;;;;;11.49;59.50;99672.41;5029693;28;20112;-86
2022/05/06 04:55:57;;;;;;;6.18;3.60;;;;;;;11.75;58.94;99673.81;4995923;28;20112;-86
2022/05/06 04:58:23;;;;;;;9.25;3.58;;;;;;;11.68;58.71;99676.63;5010871;28;20401;-86
2022/05/06 05:00:48;;;;;;;4.57;3.63;;;;;;;11.71;59.10;99670.78;4996167;28;20095;-86
2022/05/06 05:03:14;;;;;;;4.03;3.65;;;;;;;11.84;58.78;99680.41;5006864;28;20029;-86
2022/05/06 05:05:39;;;;;;;6.60;3.65;;;;;;;11.95;58.25;99671.53;5010977;28;20096;-86
2022/05/06 05:08:08;;;;;;;4.35;3.75;;;;;;;12.27;57.41;99672.72;4994249;28;20028;-86
2022/05/06 05:10:33;;;;;;;4.72;3.95;;;;;;;12.42;57.16;99681.03;5029979;28;20018;-86
2022/05/06 05:12:59;;;;;;;5.18;3.90;;;;;;;12.40;57.86;99676.97;5006378;28;20042;-86
2022/05/06 05:15:24;;;;;;;5.68;4.28;;;;;;;12.53;57.70;99685.53;4988918;28;20033;-86
2022/05/06 05:17:49;;;;;;;4.72;4.13;;;;;;;12.47;57.73;99691.03;5002835;28;20044;-86
2022/05/06 05:20:15;;;;;;;4.03;3.63;;;;;;;12.48;57.93;99688.09;4995402;28;20076;-86
2022/05/06 05:22:41;;;;;;;5.88;4.45;;;;;;;12.41;57.91;99683.94;5009518;28;20044;-86
2022/05/06 05:25:07;;;;;;;6.60;3.90;;;;;;;12.48;58.17;99690.78;5001136;28;20480;-86
2022/05/06 05:27:34;;;;;;;5.55;4.03;;;;;;;12.46;58.03;99687.53;4994403;28;20034;-85
2022/05/06 05:30:00;;;;;;;4.43;4.00;;;;;;;12.49;58.27;99695.06;5006932;28;20083;-86
2022/05/06 05:32:26;;;;;;;4.22;3.83;;;;;;;12.45;58.45;99688.56;5012314;28;20103;-86
2022/05/06 05:34:51;;;;;;;4.88;4.30;;;;;;;12.43;58.55;99684.50;4973988;28;20026;-86
2022/05/06 05:37:17;;;;;;;5.45;4.43;;;;;;;12.46;58.69;99684.88;5006261;28;20419;-86
2022/05/06 05:39:42;;;;;;;6.80;4.25;;;;;;;12.46;58.90;99686.72;4975336;28;20079;-86
2022/05/06 05:42:08;;;;;;;4.93;4.13;;;;;;;12.45;58.99;99688.56;4994918;28;20416;-86
2022/05/06 05:50:04;;;;;;;8.45;4.20;;;;;;;12.49;58.93;99699.63;5027622;28;20045;-86
2022/05/06 05:52:29;;;;;;;4.38;3.92;;;;;;;12.51;59.20;99702.88;5003096;28;20474;-86
2022/05/06 05:54:54;;;;;;;6.75;4.57;;;;;;;12.48;59.43;99698.81;4995368;28;20033;-85
2022/05/06 05:57:20;;;;;;;8.20;4.47;;;;;;;12.53;58.77;99695.44;4988810;28;21787;-86
2022/05/06 05:59:47;;;;;;;10.32;5.85;;;;;;;12.58;58.87;99700.88;4990105;28;20040;-86
2022/05/06 06:02:12;;;;;;;7.18;4.68;;;;;;;12.60;59.09;99706.81;4970747;28;20486;-85
2022/05/06 06:04:39;;;;;;;4.60;3.97;;;;;;;12.63;59.04;99701.78;5015434;28;20029;-86
2022/05/06 06:07:05;;;;;;;6.90;4.10;;;;;;;12.65;59.39;99702.34;4995649;28;20037;-86
2022/05/06 06:09:32;;;;;;;5.05;4.00;;;;;;;12.63;58.91;99696.41;5008429;28;20377;-86
2022/05/06 06:11:57;;;;;;;11.60;4.40;;;;;;;12.69;59.00;99705.34;5011228;28;20488;-86
2022/05/06 06:14:22;;;;;;;5.75;4.43;;;;;;;12.72;58.63;99699.50;5001805;28;20083;-86
2022/05/06 06:16:50;;;;;;;6.10;4.35;;;;;;;12.77;59.30;99711.16;4975725;28;20031;-86
2022/05/06 06:19:15;;;;;;;5.82;4.57;;;;;;;12.77;58.90;99703.13;4989179;28;20063;-86
2022/05/06 06:21:41;;;;;;;6.00;4.25;;;;;;;12.73;59.09;99696.59;4989909;28;20029;-86
2022/05/06 06:24:06;;;;;;;5.55;4.38;;;;;;;12.78;59.05;99703.91;5007017;28;20362;-86
2022/05/06 06:26:31;;;;;;;5.57;4.70;;;;;;;12.79;59.48;99700.19;4991663;28;20030;-86
2022/05/06 06:28:57;;;;;;;7.47;4.40;;;;;;;12.82;59.02;99699.69;4976526;28;20022;-86
2022/05/06 06:31:22;;;;;;;9.48;5.60;;;;;;;12.85;59.94;99709.94;4974633;28;20026;-86
2022/05/06 06:33:47;;;;;;;11.57;4.72;;;;;;;12.83;59.24;99695.97;4976019;28;20550;-86
2022/05/06 06:36:13;;;;;;;9.02;4.47;;;;;;;12.93;59.27;99704.16;4997965;28;20044;-86
2022/05/06 06:38:39;;;;;;;10.15;5.53;;;;;;;12.99;59.15;99715.78;5002641;28;20089;-86
2022/05/06 06:41:04;;;;;;;5.45;4.65;;;;;;;13.05;59.41;99709.47;5008449;28;20033;-86
2022/05/06 06:43:30;;;;;;;8.55;5.65;;;;;;;12.97;59.45;99691.09;5008985;28;20120;-86
2022/05/06 06:45:56;;;;;;;8.23;5.05;;;;;;;13.12;59.02;99710.97;4994070;28;20080;-86
2022/05/06 06:48:25;;;;;;;5.72;4.60;;;;;;;13.16;58.78;99713.97;4975828;28;20041;-86
2022/05/06 06:50:52;;;;;;;16.92;5.57;;;;;;;13.16;59.40;99720.13;4977747;28;20048;-86
2022/05/06 06:53:18;;;;;;;7.28;4.90;;;;;;;13.17;58.97;99704.88;5008825;28;20053;-86
2022/05/06 06:55:43;;;;;;;7.50;5.03;;;;;;;13.31;59.20;99719.56;4997005;28;20102;-86
2022/05/06 06:58:09;;;;;;;7.07;5.10;;;;;;;13.37;59.32;99723.94;4996033;28;20029;-86
2022/05/06 07:00:34;;;;;;;10.25;5.40;;;;;;;13.48;59.23;99725.72;4974276;28;20032;-86
2022/05/06 07:02:59;;;;;;;9.75;4.45;;;;;;;13.52;58.72;99733.03;4984568;28;20044;-86
2022/05/06 07:05:25;;;;;;;8.18;5.05;;;;;;;13.50;59.15;99735.13;4988472;28;20057;-86
2022/05/06 07:13:18;;;;;;;6.88;4.78;;;;;;;13.57;59.27;99720.75;4992255;28;20104;-85
2022/05/06 07:15:43;;;;;;;6.35;4.72;;;;;;;13.65;59.08;99726.50;4991431;28;20029;-86
2022/05/06 07:18:09;;;;;;;10.30;5.05;;;;;;;13.76;59.04;99725.59;5008899;28;20034;-86
2022/05/06 07:20:34;;;;;;;5.82;4.60;;;;;;;13.74;59.00;99724.22;4986959;28;20120;-86
2022/05/06 07:22:59;;;;;;;10.02;4.88;;;;;;;13.86;58.56;99724.91;4990014;28;20527;-86
2022/05/06 07:25:25;;;;;;;5.07;4.40;;;;;;;13.87;58.81;99723.88;5013317;28;20033;-86
2022/05/06 07:27:50;;;;;;;4.75;4.20;;;;;;;13.92;58.71;99734.66;4971100;28;20464;-86
2022/05/06 07:30:15;;;;;;;6.57;4.65;;;;;;;13.93;58.49;99723.69;4983131;28;20045;-84
2022/05/06 07:32:41;;;;;;;7.65;4.65;;;;;;;14.00;58.71;99715.47;5006555;28;20033;-84
2022/05/06 07:35:07;;;;;;;6.38;4.93;;;;;;;14.18;58.45;99725.88;4978772;28;20022;-84
2022/05/06 07:37:33;;;;;;;8.10;4.22;;;;;;;14.24;58.43;99720.31;5010672;28;20022;-84
2022/05/06 07:40:05;;;;;;;6.82;4.53;;;;;;;14.31;58.19;99728.19;4994301;28;20072;-84
2022/05/06 07:42:32;;;;;;;8.43;5.03;;;;;;;14.42;58.11;99721.88;5014610;28;20510;-85
2022/05/06 07:44:57;;;;;;;5.85;4.03;;;;;;;14.49;57.63;99725.19;4998398;28;20375;-84
2022/05/06 07:47:23;;;;;;;7.00;4.28;;;;;;;14.46;57.68;99714.16;5000021;28;20080;-84
2022/05/06 07:49:48;;;;;;;10.65;4.70;;;;;;;14.62;57.52;99718.59;4996634;28;20124;-85
2022/05/06 07:52:13;;;;;;;8.15;4.55;;;;;;;14.67;57.15;99706.06;4996220;28;20041;-84
2022/05/06 07:54:39;;;;;;;7.43;4.05;;;;;;;14.83;56.63;99726.63;4982536;28;20059;-84
2022/05/06 07:57:04;;;;;;;7.32;4.38;;;;;;;14.97;56.63;99727.84;4998964;28;20026;-84
2022/05/06 07:59:29;;;;;;;6.20;3.53;;;;;;;14.92;56.81;99722.41;4989026;28;20564;-84
2022/05/06 08:04:40;;;;;;;5.57;3.90;;;;;;;15.08;56.38;99733.28;5030992;28;20421;-85
2022/05/06 08:07:07;;;;;;;6.13;3.58;;;;;;;15.11;56.36;99725.53;4980059;28;20492;-84
2022/05/06 08:09:33;;;;;;;7.30;4.13;;;;;;;15.18;55.69;99717.25;4995198;28;20382;-84
2022/05/06 08:11:58;;;;;;;6.28;3.80;;;;;;;15.36;55.57;99723.03;5029493;28;20500;-85
2022/05/06 08:14:24;;;;;;;4.03;3.63;;;;;;;15.34;56.06;99719.78;5027476;28;20025;-84
2022/05/06 08:16:50;;;;;;;9.63;3.85;;;;;;;15.52;55.92;99721.31;5020777;28;20031;-84
2022/05/06 08:19:17;;;;;;;6.10;4.05;;;;;;;15.43;56.74;99718.28;5013610;28;20033;-85
2022/05/06 08:21:43;;;;;;;5.57;3.25;;;;;;;15.62;55.87;99727.56;5017678;28;20033;-84
2022/05/06 08:24:09;;;;;;;6.15;3.42;;;;;;;15.55;56.04;99718.09;5030729;28;20040;-85
2022/05/06 08:26:35;;;;;;;6.72;3.13;;;;;;;15.70;55.41;99710.13;5011239;28;20029;-85
2022/05/06 08:29:00;;;;;;;8.77;3.25;;;;;;;15.77;55.50;99719.56;5008706;28;20037;-85
2022/05/06 08:31:27;;;;;;;8.55;3.85;;;;;;;15.98;54.94;99719.69;5015878;28;20524;-85
2022/05/06 08:33:54;;;;;;;7.88;3.58;;;;;;;15.97;54.86;99704.59;4996271;28;20025;-85
2022/05/06 08:36:19;;;;;;;7.85;2.50;;;;;;;15.95;54.97;99694.09;5014771;28;20179;-85
2022/05/06 08:38:45;;;;;;;11.63;3.05;;;;;;;16.07;55.41;99705.47;5007852;28;20112;-85
2022/05/06 08:41:11;;;;;;;7.22;3.33;;;;;;;16.09;54.85;99721.34;4979592;28;20060;-85
2022/05/06 08:43:37;;;;;;;7.45;3.10;;;;;;;16.18;53.89;99714.38;5011601;28;20402;-85
2022/05/06 08:51:33;;;;;;;3.72;3.10;;;;;;;16.37;54.40;99724.44;5031896;28;20100;-85
2022/05/06 08:53:59;;;;;;;5.78;2.95;;;;;;;16.43;53.80;99719.84;5012973;28;20029;-85
2022/05/06 08:56:25;;;;;;;5.68;3.03;;;;;;;16.48;53.53;99712.59;5029037;28;20080;-85
2022/05/06 08:58:50;;;;;;;3.40;2.55;;;;;;;16.55;53.21;99719.66;5010294;28;20121;-84
2022/05/06 09:01:20;;;;;;;7.55;2.88;;;;;;;16.70;52.91;99704.34;4997644;28;20033;-85
2022/05/06 09:03:50;;;;;;;3.70;2.72;;;;;;;16.78;52.60;99700.28;5010543;28;20124;-85
2022/05/06 09:06:30;;;;;;;5.68;2.40;;;;;;;16.82;53.35;99710.25;5013703;28;20048;-85
2022/05/06 09:08:57;;;;;;;3.97;2.58;;;;;;;16.86;52.91;99699.78;4992659;28;20034;-85
2022/05/06 09:14:17;;;;;;;4.80;2.53;;;;;;;17.21;51.71;99697.88;5019587;28;20083;-85
2022/05/06 09:16:46;;;;;;;5.18;3.65;;;;;;;17.29;50.89;99704.63;5013455;28;20379;-85
2022/05/06 09:19:20;;;;;;;3.90;3.25;;;;;;;17.54;51.15;99706.53;5024594;28;20501;-84
2022/05/06 09:22:11;;;;;;;3.45;3.15;;;;;;;17.48;50.14;99713.78;5017621;28;20091;-85
2022/05/06 09:24:38;;;;;;;4.88;3.42;;;;;;;17.45;50.12;99703.50;4983051;28;20061;-85
2022/05/06 09:27:15;;;;;;;12.05;4.03;;;;;;;17.77;50.21;99703.22;5009925;28;20108;-85
2022/05/06 09:29:41;;;;;;;9.07;3.58;;;;;;;17.77;50.14;99701.34;5004453;28;20034;-85
2022/05/06 09:32:28;;;;;;;8.63;3.80;;;;;;;17.78;50.34;99694.03;5013681;28;20029;-85
2022/05/06 09:34:59;;;;;;;3.50;2.72;;;;;;;17.88;50.34;99702.13;5012230;28;20095;-85
2022/05/06 09:37:38;;;;;;;7.28;3.95;;;;;;;17.98;49.95;99693.97;4997671;28;20022;-85
2022/05/06 09:40:15;;;;;;;7.38;3.88;;;;;;;18.25;49.54;99707.09;4977416;28;20557;-85
2022/05/06 09:42:53;;;;;;;5.15;3.70;;;;;;;18.22;49.41;99704.94;5008394;28;20029;-85
2022/05/06 09:45:34;;;;;;;5.68;3.38;;;;;;;18.20;48.89;99690.91;5011743;28;20504;-85
2022/05/06 09:48:00;;;;;;;5.90;3.55;;;;;;;18.37;48.46;99697.56;5010114;28;20053;-85
2022/05/06 09:50:38;;;;;;;4.82;3.35;;;;;;;18.51;48.50;99697.81;5011902;28;20112;-85
2022/05/06 09:53:08;;;;;;;6.00;3.72;;;;;;;18.55;48.17;99691.56;4999604;28;20387;-85
2022/05/06 09:55:36;;;;;;;5.88;3.40;;;;;;;18.82;48.03;99693.84;5011992;28;20489;-85
2022/05/06 09:58:02;;;;;;;7.78;3.85;;;;;;;18.92;48.62;99696.44;4981814;28;20021;-85
2022/05/06 10:00:28;;;;;;;4.15;3.38;;;;;;;18.84;47.52;99694.34;5014876;28;20033;-85
2022/05/06 10:02:55;;;;;;;6.53;3.95;;;;;;;18.97;47.42;99695.59;5013196;28;20032;-85
2022/05/06 10:05:21;;;;;;;4.43;3.35;;;;;;;19.06;48.06;99694.72;5029753;28;20093;-86
2022/05/06 10:07:47;;;;;;;9.63;4.25;;;;;;;19.27;47.19;99701.59;4998518;28;20029;-85
2022/05/06 10:10:19;;;;;;;4.43;3.65;;;;;;;19.44;47.59;99693.88;5000553;28;20382;-85
2022/05/06 10:12:53;;;;;;;3.72;3.42;;;;;;;19.47;47.26;99680.84;5028051;28;20060;-85
2022/05/06 10:15:20;;;;;;;6.90;3.38;;;;;;;19.44;48.06;99685.75;5021418;28;20116;-85
2022/05/06 10:17:48;;;;;;;6.55;3.00;;;;;;;19.53;46.86;99683.22;5014643;28;20029;-85
2022/05/06 10:20:35;;;;;;;6.30;3.00;;;;;;;19.57;46.55;99681.56;5027395;28;20025;-85
2022/05/06 10:23:09;;;;;;;4.55;2.55;;;;;;;19.69;46.86;99681.16;5007297;28;20477;-85
2022/05/06 10:25:41;;;;;;;3.25;2.78;;;;;;;19.86;46.39;99676.09;5012106;28;20108;-85
2022/05/06 10:34:06;;;;;;;4.43;2.63;;;;;;;20.18;44.59;99677.03;5025300;28;20121;-86
2022/05/06 10:36:41;;;;;;;4.40;2.75;;;;;;;20.19;45.15;99673.25;5009980;28;20115;-85
2022/05/06 10:39:26;;;;;;;6.97;2.45;;;;;;;20.26;44.21;99667.50;5022844;28;20473;-85
2022/05/06 10:42:14;;;;;;;3.80;2.17;;;;;;;20.40;44.29;99675.72;5012314;28;20037;-86
2022/05/06 10:44:41;;;;;;;3.63;2.17;;;;;;;20.48;43.53;99675.88;5003312;28;20030;-85
2022/05/06 10:47:13;;;;;;;2.28;1.80;;;;;;;20.52;43.02;99674.19;5010328;28;20478;-85
2022/05/06 10:49:38;;;;;;;1.90;1.75;;;;;;;20.45;43.23;99668.31;5012870;28;20496;-85
2022/05/06 10:52:15;;;;;;;4.37;1.93;;;;;;;20.46;43.48;99667.22;5012387;28;20026;-85
2022/05/06 10:54:42;;;;;;;1.90;1.50;;;;;;;20.42;44.01;99676.25;5010041;28;20761;-85
2022/05/06 10:57:08;;;;;;;3.65;2.08;;;;;;;20.46;43.79;99666.41;5004532;28;20045;-86
2022/05/06 10:59:54;;;;;;;3.42;2.40;;;;;;;20.58;43.87;99664.88;4991016;28;20922;-86
2022/05/06 11:02:25;;;;;;;3.05;2.60;;;;;;;20.56;44.45;99661.66;5010834;28;20508;-86
2022/05/06 11:04:58;;;;;;;5.35;2.42;;;;;;;20.48;44.41;99662.31;5025836;28;20029;-86
2022/05/06 11:07:24;;;;;;;4.07;1.92;;;;;;;20.43;44.70;99667.00;5020032;28;20030;-86
2022/05/06 11:09:51;;;;;;;2.65;2.28;;;;;;;20.36;44.88;99661.13;5012109;28;20025;-85
2022/05/06 11:12:37;;;;;;;3.28;2.22;;;;;;;20.34;44.65;99657.88;5008326;28;20104;-85
2022/05/06 11:15:13;;;;;;;3.58;2.58;;;;;;;20.34;44.66;99657.88;5025544;28;20029;-85
2022/05/06 11:17:39;;;;;;;2.20;2.00;;;;;;;20.40;44.60;99649.38;5012740;28;20055;-85
2022/05/06 11:20:13;;;;;;;2.40;2.20;;;;;;;20.51;44.36;99637.28;4998319;28;20048;-86
2022/05/06 11:22:51;;;;;;;2.70;1.90;;;;;;;20.73;43.94;99642.94;5030051;28;20037;-86
2022/05/06 11:25:16;;;;;;;3.00;2.20;;;;;;;20.96;44.13;99643.94;5003997;28;20025;-86
2022/05/06 11:27:42;;;;;;;3.28;2.13;;;;;;;21.23;43.41;99630.44;5002965;28;20045;-86
2022/05/06 11:30:09;;;;;;;2.42;2.22;;;;;;;21.52;43.23;99624.75;4974401;28;20365;-86
2022/05/06 11:32:35;;;;;;;4.05;2.50;;;;;;;21.68;43.40;99634.22;4988721;28;20493;-86
2022/05/06 11:35:09;;;;;;;3.10;1.88;;;;;;;21.84;43.28;99635.53;4987444;28;20032;-86
2022/05/06 11:37:39;;;;;;;3.55;1.92;;;;;;;21.93;43.09;99639.16;5007160;28;20567;-85
2022/05/06 11:40:32;;;;;;;3.42;1.95;;;;;;;22.16;42.71;99635.44;5025336;28;20034;-86
2022/05/06 11:43:18;;;;;;;8.77;2.53;;;;;;;22.05;42.86;99634.03;4984602;28;20108;-86
2022/05/06 11:48:30;;;;;;;;;;;;;;;21.84;43.50;99623.88;5010316;28;20037;-86
2022/05/06 11:50:58;;;;;;;2.53;2.10;;;;;;;21.78;43.89;99619.59;4993319;28;19917;-85
2022/05/06 11:53:27;;;;;;;3.53;1.98;;;;;;;21.62;44.15;99614.47;4999791;28;20421;-85
2022/05/06 11:55:54;;;;;;;5.75;2.08;;;;;;;21.61;43.88;99620.22;4988760;28;20072;-85
2022/05/06 11:58:20;;;;;;;3.85;2.38;;;;;;;21.70;43.72;99614.91;5016601;28;20130;-85
2022/05/06 12:00:45;;;;;;;6.72;2.58;;;;;;;21.93;42.97;99601.09;4992511;28;20093;-86
2022/05/06 12:03:13;;;;;;;2.10;1.90;;;;;;;22.36;42.62;99607.78;4988523;28;20417;-86
2022/05/06 12:05:40;;;;;;;5.57;2.22;;;;;;;22.51;42.62;99603.91;4999870;28;20045;-86
2022/05/06 12:08:07;;;;;;;2.42;1.58;;;;;;;22.51;42.86;99609.34;4988191;28;20072;-86
2022/05/06 12:10:34;;;;;;;3.90;2.05;;;;;;;22.34;42.35;99599.09;4981930;28;20060;-86
2022/05/06 12:13:04;;;;;;;2.17;1.90;;;;;;;22.30;42.09;99609.00;4988061;28;20074;-85
2022/05/06 12:15:34;;;;;;;4.82;2.17;;;;;;;22.37;41.66;99605.84;4987034;28;20044;-86
2022/05/06 12:18:06;;;;;;;3.08;2.20;;;;;;;22.28;41.08;99610.41;4999339;28;20040;-85